sensor_id;sensor_type;location;lat;lon;timestamp;P1;durP1;ratioP1;P2;durP2;ratioP2
29294;SDS011;16305;48.566;8.846;2022-12-18T00:03:49;75.53;;;33.03;;
29294;SDS011;16305;48.566;8.846;2022-12-18T00:06:15;61.37;;;28.43;;
29294;SDS011;16305;48.566;8.846;2022-12-18T00:08:42;57.70;;;25.73;;
29294;SDS011;16305;48.566;8.846;2022-12-18T00:11:10;59.10;;;26.07;;
29294;SDS011;16305;48.566;8.846;2022-12-18T00:13:37;52.00;;;24.47;;
29294;SDS011;16305;48.566;8.846;2022-12-18T00:16:07;53.53;;;24.57;;
29294;SDS011;16305;48.566;8.846;2022-12-18T00:18:35;63.90;;;28.13;;
29294;SDS011;16305;48.566;8.846;2022-12-18T00:21:02;66.03;;;28.03;;
29294;SDS011;16305;48.566;8.846;2022-12-18T00:23:30;76.80;;;32.47;;
29294;SDS011;16305;48.566;8.846;2022-12-18T00:25:59;82.50;;;34.07;;
29294;SDS011;16305;48.566;8.846;2022-12-18T00:28:29;78.17;;;33.10;;
29294;SDS011;16305;48.566;8.846;2022-12-18T00:31:00;76.07;;;31.13;;
29294;SDS011;16305;48.566;8.846;2022-12-18T00:33:53;81.77;;;35.10;;
29294;SDS011;16305;48.566;8.846;2022-12-18T00:36:20;73.27;;;31.93;;
29294;SDS011;16305;48.566;8.846;2022-12-18T00:38:47;77.17;;;33.80;;
29294;SDS011;16305;48.566;8.846;2022-12-18T00:41:14;70.23;;;32.17;;
29294;SDS011;16305;48.566;8.846;2022-12-18T00:43:59;52.33;;;25.20;;
29294;SDS011;16305;48.566;8.846;2022-12-18T00:46:25;51.87;;;24.17;;
29294;SDS011;16305;48.566;8.846;2022-12-18T00:48:51;57.83;;;25.77;;
29294;SDS011;16305;48.566;8.846;2022-12-18T00:51:16;57.83;;;25.80;;
29294;SDS011;16305;48.566;8.846;2022-12-18T00:53:42;74.63;;;26.93;;
29294;SDS011;16305;48.566;8.846;2022-12-18T00:56:07;59.10;;;26.03;;
29294;SDS011;16305;48.566;8.846;2022-12-18T00:58:36;65.93;;;25.97;;
29294;SDS011;16305;48.566;8.846;2022-12-18T01:01:03;103.10;;;29.87;;
29294;SDS011;16305;48.566;8.846;2022-12-18T01:03:29;58.43;;;25.27;;
29294;SDS011;16305;48.566;8.846;2022-12-18T01:05:55;48.17;;;22.73;;
29294;SDS011;16305;48.566;8.846;2022-12-18T01:08:21;61.73;;;25.23;;
29294;SDS011;16305;48.566;8.846;2022-12-18T01:10:46;56.83;;;25.13;;
29294;SDS011;16305;48.566;8.846;2022-12-18T01:13:12;61.37;;;25.40;;
29294;SDS011;16305;48.566;8.846;2022-12-18T01:15:37;55.07;;;24.97;;
29294;SDS011;16305;48.566;8.846;2022-12-18T01:18:03;58.07;;;25.33;;
29294;SDS011;16305;48.566;8.846;2022-12-18T01:20:30;56.23;;;25.73;;
29294;SDS011;16305;48.566;8.846;2022-12-18T01:22:56;63.17;;;25.60;;
29294;SDS011;16305;48.566;8.846;2022-12-18T01:25:21;66.03;;;28.00;;
29294;SDS011;16305;48.566;8.846;2022-12-18T01:27:47;56.93;;;26.53;;
29294;SDS011;16305;48.566;8.846;2022-12-18T01:30:12;62.27;;;25.43;;
29294;SDS011;16305;48.566;8.846;2022-12-18T01:32:38;62.63;;;26.73;;
29294;SDS011;16305;48.566;8.846;2022-12-18T01:35:04;66.43;;;27.83;;
29294;SDS011;16305;48.566;8.846;2022-12-18T01:37:30;72.17;;;30.00;;
29294;SDS011;16305;48.566;8.846;2022-12-18T01:39:55;61.77;;;25.30;;
29294;SDS011;16305;48.566;8.846;2022-12-18T01:42:21;66.60;;;27.57;;
29294;SDS011;16305;48.566;8.846;2022-12-18T01:47:29;65.73;;;27.00;;
29294;SDS011;16305;48.566;8.846;2022-12-18T01:50:15;68.47;;;28.07;;
29294;SDS011;16305;48.566;8.846;2022-12-18T01:52:56;64.17;;;24.60;;
29294;SDS011;16305;48.566;8.846;2022-12-18T01:55:27;60.47;;;24.50;;
29294;SDS011;16305;48.566;8.846;2022-12-18T01:57:56;67.93;;;25.80;;
29294;SDS011;16305;48.566;8.846;2022-12-18T02:00:24;65.07;;;25.17;;
29294;SDS011;16305;48.566;8.846;2022-12-18T02:02:51;60.63;;;25.67;;
29294;SDS011;16305;48.566;8.846;2022-12-18T02:05:18;56.53;;;23.50;;
29294;SDS011;16305;48.566;8.846;2022-12-18T02:08:19;52.07;;;22.93;;
29294;SDS011;16305;48.566;8.846;2022-12-18T02:10:54;51.83;;;23.17;;
29294;SDS011;16305;48.566;8.846;2022-12-18T02:13:48;49.50;;;22.60;;
29294;SDS011;16305;48.566;8.846;2022-12-18T02:16:24;62.53;;;23.93;;
29294;SDS011;16305;48.566;8.846;2022-12-18T02:19:08;55.10;;;23.47;;
29294;SDS011;16305;48.566;8.846;2022-12-18T02:24:37;52.37;;;23.67;;
29294;SDS011;16305;48.566;8.846;2022-12-18T02:27:13;66.93;;;25.87;;
29294;SDS011;16305;48.566;8.846;2022-12-18T02:29:41;60.17;;;23.73;;
29294;SDS011;16305;48.566;8.846;2022-12-18T02:32:22;53.77;;;23.57;;
29294;SDS011;16305;48.566;8.846;2022-12-18T02:34:52;54.90;;;24.23;;
29294;SDS011;16305;48.566;8.846;2022-12-18T02:37:21;53.23;;;24.93;;
29294;SDS011;16305;48.566;8.846;2022-12-18T02:39:48;58.90;;;24.43;;
29294;SDS011;16305;48.566;8.846;2022-12-18T02:42:16;50.03;;;22.87;;
29294;SDS011;16305;48.566;8.846;2022-12-18T02:44:44;55.00;;;24.77;;
29294;SDS011;16305;48.566;8.846;2022-12-18T02:47:11;57.67;;;25.33;;
29294;SDS011;16305;48.566;8.846;2022-12-18T02:49:49;64.03;;;25.17;;
29294;SDS011;16305;48.566;8.846;2022-12-18T02:52:41;58.77;;;23.93;;
29294;SDS011;16305;48.566;8.846;2022-12-18T02:58:03;56.47;;;24.07;;
29294;SDS011;16305;48.566;8.846;2022-12-18T03:00:43;54.87;;;24.67;;
29294;SDS011;16305;48.566;8.846;2022-12-18T03:03:19;56.73;;;21.37;;
29294;SDS011;16305;48.566;8.846;2022-12-18T03:06:06;60.20;;;25.03;;
29294;SDS011;16305;48.566;8.846;2022-12-18T03:08:38;54.13;;;22.03;;
29294;SDS011;16305;48.566;8.846;2022-12-18T03:11:10;48.17;;;22.53;;
29294;SDS011;16305;48.566;8.846;2022-12-18T03:13:42;54.33;;;22.90;;
29294;SDS011;16305;48.566;8.846;2022-12-18T03:16:14;59.73;;;23.80;;
29294;SDS011;16305;48.566;8.846;2022-12-18T03:18:50;57.37;;;23.97;;
29294;SDS011;16305;48.566;8.846;2022-12-18T03:21:23;62.73;;;24.50;;
29294;SDS011;16305;48.566;8.846;2022-12-18T03:23:54;54.80;;;21.97;;
29294;SDS011;16305;48.566;8.846;2022-12-18T03:26:22;56.20;;;22.67;;
29294;SDS011;16305;48.566;8.846;2022-12-18T03:28:51;66.70;;;24.07;;
29294;SDS011;16305;48.566;8.846;2022-12-18T03:31:21;64.30;;;25.10;;
29294;SDS011;16305;48.566;8.846;2022-12-18T03:33:52;68.97;;;25.20;;
29294;SDS011;16305;48.566;8.846;2022-12-18T03:36:20;63.13;;;25.57;;
29294;SDS011;16305;48.566;8.846;2022-12-18T03:38:46;80.47;;;29.13;;
29294;SDS011;16305;48.566;8.846;2022-12-18T03:44:14;58.90;;;25.27;;
29294;SDS011;16305;48.566;8.846;2022-12-18T03:49:23;61.63;;;25.33;;
29294;SDS011;16305;48.566;8.846;2022-12-18T03:51:57;57.70;;;23.73;;
29294;SDS011;16305;48.566;8.846;2022-12-18T03:54:28;63.97;;;25.13;;
29294;SDS011;16305;48.566;8.846;2022-12-18T03:56:57;71.97;;;25.97;;
29294;SDS011;16305;48.566;8.846;2022-12-18T03:59:26;75.03;;;27.50;;
29294;SDS011;16305;48.566;8.846;2022-12-18T04:01:53;69.53;;;28.07;;
29294;SDS011;16305;48.566;8.846;2022-12-18T04:04:22;69.23;;;24.67;;
29294;SDS011;16305;48.566;8.846;2022-12-18T04:06:49;67.77;;;26.53;;
29294;SDS011;16305;48.566;8.846;2022-12-18T04:09:17;78.47;;;28.77;;
29294;SDS011;16305;48.566;8.846;2022-12-18T04:11:43;73.70;;;25.90;;
29294;SDS011;16305;48.566;8.846;2022-12-18T04:14:09;71.63;;;25.63;;
29294;SDS011;16305;48.566;8.846;2022-12-18T04:16:36;69.80;;;26.30;;
29294;SDS011;16305;48.566;8.846;2022-12-18T04:19:01;65.90;;;26.87;;
29294;SDS011;16305;48.566;8.846;2022-12-18T04:21:27;63.30;;;26.77;;
29294;SDS011;16305;48.566;8.846;2022-12-18T04:23:53;69.00;;;26.73;;
29294;SDS011;16305;48.566;8.846;2022-12-18T04:26:18;63.20;;;26.67;;
29294;SDS011;16305;48.566;8.846;2022-12-18T04:28:44;71.40;;;27.10;;
29294;SDS011;16305;48.566;8.846;2022-12-18T04:31:09;75.27;;;27.40;;
29294;SDS011;16305;48.566;8.846;2022-12-18T04:33:35;72.87;;;26.47;;
29294;SDS011;16305;48.566;8.846;2022-12-18T04:36:00;69.13;;;28.37;;
29294;SDS011;16305;48.566;8.846;2022-12-18T04:38:26;88.37;;;28.03;;
29294;SDS011;16305;48.566;8.846;2022-12-18T04:40:52;80.57;;;28.00;;
29294;SDS011;16305;48.566;8.846;2022-12-18T04:43:17;72.63;;;27.17;;
29294;SDS011;16305;48.566;8.846;2022-12-18T04:45:43;81.87;;;26.80;;
29294;SDS011;16305;48.566;8.846;2022-12-18T04:48:08;67.27;;;27.27;;
29294;SDS011;16305;48.566;8.846;2022-12-18T04:50:34;76.87;;;26.17;;
29294;SDS011;16305;48.566;8.846;2022-12-18T04:52:59;82.07;;;26.33;;
29294;SDS011;16305;48.566;8.846;2022-12-18T04:55:25;62.73;;;26.30;;
29294;SDS011;16305;48.566;8.846;2022-12-18T04:57:51;74.50;;;29.10;;
29294;SDS011;16305;48.566;8.846;2022-12-18T05:00:17;78.50;;;27.57;;
29294;SDS011;16305;48.566;8.846;2022-12-18T05:02:42;71.63;;;28.10;;
29294;SDS011;16305;48.566;8.846;2022-12-18T05:05:08;82.43;;;27.97;;
29294;SDS011;16305;48.566;8.846;2022-12-18T05:07:34;79.23;;;26.73;;
29294;SDS011;16305;48.566;8.846;2022-12-18T05:10:00;104.10;;;30.00;;
29294;SDS011;16305;48.566;8.846;2022-12-18T05:12:25;97.10;;;29.37;;
29294;SDS011;16305;48.566;8.846;2022-12-18T05:14:51;133.73;;;30.17;;
29294;SDS011;16305;48.566;8.846;2022-12-18T05:17:16;138.07;;;32.63;;
29294;SDS011;16305;48.566;8.846;2022-12-18T05:19:42;142.07;;;35.17;;
29294;SDS011;16305;48.566;8.846;2022-12-18T05:22:08;132.23;;;34.20;;
29294;SDS011;16305;48.566;8.846;2022-12-18T05:24:34;109.30;;;32.13;;
29294;SDS011;16305;48.566;8.846;2022-12-18T05:27:00;120.60;;;36.93;;
29294;SDS011;16305;48.566;8.846;2022-12-18T05:29:25;134.70;;;40.17;;
29294;SDS011;16305;48.566;8.846;2022-12-18T05:31:51;153.97;;;37.90;;
29294;SDS011;16305;48.566;8.846;2022-12-18T05:34:16;140.33;;;38.77;;
29294;SDS011;16305;48.566;8.846;2022-12-18T05:36:42;122.67;;;36.37;;
29294;SDS011;16305;48.566;8.846;2022-12-18T05:39:07;116.40;;;35.63;;
29294;SDS011;16305;48.566;8.846;2022-12-18T05:41:33;117.93;;;33.73;;
29294;SDS011;16305;48.566;8.846;2022-12-18T05:43:59;116.33;;;32.97;;
29294;SDS011;16305;48.566;8.846;2022-12-18T05:46:25;113.50;;;30.33;;
29294;SDS011;16305;48.566;8.846;2022-12-18T05:48:51;119.53;;;33.27;;
29294;SDS011;16305;48.566;8.846;2022-12-18T05:51:18;104.47;;;32.17;;
29294;SDS011;16305;48.566;8.846;2022-12-18T05:53:45;142.73;;;35.10;;
29294;SDS011;16305;48.566;8.846;2022-12-18T05:56:12;138.00;;;35.27;;
29294;SDS011;16305;48.566;8.846;2022-12-18T05:58:39;140.20;;;31.77;;
29294;SDS011;16305;48.566;8.846;2022-12-18T06:01:06;145.57;;;28.13;;
29294;SDS011;16305;48.566;8.846;2022-12-18T06:03:34;175.83;;;27.23;;
29294;SDS011;16305;48.566;8.846;2022-12-18T06:05:59;151.00;;;25.03;;
29294;SDS011;16305;48.566;8.846;2022-12-18T06:08:25;152.63;;;24.93;;
29294;SDS011;16305;48.566;8.846;2022-12-18T06:10:51;105.80;;;23.23;;
29294;SDS011;16305;48.566;8.846;2022-12-18T06:13:17;132.73;;;22.37;;
29294;SDS011;16305;48.566;8.846;2022-12-18T06:15:44;91.60;;;20.67;;
29294;SDS011;16305;48.566;8.846;2022-12-18T06:18:09;63.80;;;19.70;;
29294;SDS011;16305;48.566;8.846;2022-12-18T06:20:35;55.60;;;20.97;;
29294;SDS011;16305;48.566;8.846;2022-12-18T06:23:01;63.57;;;20.37;;
29294;SDS011;16305;48.566;8.846;2022-12-18T06:25:27;79.67;;;21.47;;
29294;SDS011;16305;48.566;8.846;2022-12-18T06:27:53;63.30;;;21.87;;
29294;SDS011;16305;48.566;8.846;2022-12-18T06:30:19;94.03;;;23.63;;
29294;SDS011;16305;48.566;8.846;2022-12-18T06:32:45;93.27;;;21.13;;
29294;SDS011;16305;48.566;8.846;2022-12-18T06:35:10;89.00;;;20.47;;
29294;SDS011;16305;48.566;8.846;2022-12-18T06:37:36;71.27;;;20.97;;
29294;SDS011;16305;48.566;8.846;2022-12-18T06:40:02;62.13;;;23.03;;
29294;SDS011;16305;48.566;8.846;2022-12-18T06:42:28;71.17;;;25.97;;
29294;SDS011;16305;48.566;8.846;2022-12-18T06:44:54;61.90;;;23.93;;
29294;SDS011;16305;48.566;8.846;2022-12-18T06:47:19;70.70;;;24.90;;
29294;SDS011;16305;48.566;8.846;2022-12-18T06:49:45;78.87;;;28.87;;
29294;SDS011;16305;48.566;8.846;2022-12-18T06:52:10;82.37;;;28.73;;
29294;SDS011;16305;48.566;8.846;2022-12-18T06:54:36;81.53;;;28.73;;
29294;SDS011;16305;48.566;8.846;2022-12-18T06:57:01;78.00;;;26.80;;
29294;SDS011;16305;48.566;8.846;2022-12-18T06:59:27;69.47;;;24.50;;
29294;SDS011;16305;48.566;8.846;2022-12-18T07:01:52;70.90;;;24.37;;
29294;SDS011;16305;48.566;8.846;2022-12-18T07:04:18;67.37;;;25.63;;
29294;SDS011;16305;48.566;8.846;2022-12-18T07:06:43;73.70;;;25.33;;
29294;SDS011;16305;48.566;8.846;2022-12-18T07:09:09;63.10;;;22.60;;
29294;SDS011;16305;48.566;8.846;2022-12-18T07:11:34;56.37;;;21.77;;
29294;SDS011;16305;48.566;8.846;2022-12-18T07:14:00;52.30;;;21.30;;
29294;SDS011;16305;48.566;8.846;2022-12-18T07:16:26;57.70;;;22.23;;
29294;SDS011;16305;48.566;8.846;2022-12-18T07:18:54;64.53;;;22.93;;
29294;SDS011;16305;48.566;8.846;2022-12-18T07:21:20;61.53;;;22.13;;
29294;SDS011;16305;48.566;8.846;2022-12-18T07:23:47;62.63;;;22.43;;
29294;SDS011;16305;48.566;8.846;2022-12-18T07:26:13;59.47;;;20.67;;
29294;SDS011;16305;48.566;8.846;2022-12-18T07:28:40;55.87;;;21.27;;
29294;SDS011;16305;48.566;8.846;2022-12-18T07:31:11;61.00;;;23.63;;
29294;SDS011;16305;48.566;8.846;2022-12-18T07:33:39;93.53;;;24.07;;
29294;SDS011;16305;48.566;8.846;2022-12-18T07:36:05;105.67;;;24.83;;
29294;SDS011;16305;48.566;8.846;2022-12-18T07:38:32;68.63;;;22.47;;
29294;SDS011;16305;48.566;8.846;2022-12-18T07:41:03;57.60;;;23.10;;
29294;SDS011;16305;48.566;8.846;2022-12-18T07:43:30;59.23;;;23.20;;
29294;SDS011;16305;48.566;8.846;2022-12-18T07:45:55;56.33;;;22.73;;
29294;SDS011;16305;48.566;8.846;2022-12-18T07:48:21;55.63;;;22.93;;
29294;SDS011;16305;48.566;8.846;2022-12-18T07:50:47;65.70;;;28.40;;
29294;SDS011;16305;48.566;8.846;2022-12-18T07:53:12;46.30;;;20.23;;
29294;SDS011;16305;48.566;8.846;2022-12-18T07:55:39;38.47;;;18.77;;
29294;SDS011;16305;48.566;8.846;2022-12-18T07:58:06;42.03;;;19.63;;
29294;SDS011;16305;48.566;8.846;2022-12-18T08:00:33;37.67;;;17.40;;
29294;SDS011;16305;48.566;8.846;2022-12-18T08:02:59;47.20;;;19.20;;
29294;SDS011;16305;48.566;8.846;2022-12-18T08:05:25;54.80;;;21.07;;
29294;SDS011;16305;48.566;8.846;2022-12-18T08:07:50;41.33;;;17.60;;
29294;SDS011;16305;48.566;8.846;2022-12-18T08:10:16;64.87;;;22.93;;
29294;SDS011;16305;48.566;8.846;2022-12-18T08:12:42;53.83;;;22.67;;
29294;SDS011;16305;48.566;8.846;2022-12-18T08:15:07;42.03;;;18.73;;
29294;SDS011;16305;48.566;8.846;2022-12-18T08:17:33;56.87;;;23.30;;
29294;SDS011;16305;48.566;8.846;2022-12-18T08:19:59;48.27;;;21.10;;
29294;SDS011;16305;48.566;8.846;2022-12-18T08:22:24;56.83;;;24.67;;
29294;SDS011;16305;48.566;8.846;2022-12-18T08:24:50;63.00;;;25.83;;
29294;SDS011;16305;48.566;8.846;2022-12-18T08:27:16;61.03;;;25.60;;
29294;SDS011;16305;48.566;8.846;2022-12-18T08:29:41;63.50;;;24.40;;
29294;SDS011;16305;48.566;8.846;2022-12-18T08:32:07;66.03;;;25.80;;
29294;SDS011;16305;48.566;8.846;2022-12-18T08:34:32;63.87;;;25.50;;
29294;SDS011;16305;48.566;8.846;2022-12-18T08:36:58;64.40;;;26.73;;
29294;SDS011;16305;48.566;8.846;2022-12-18T08:39:23;59.17;;;26.17;;
29294;SDS011;16305;48.566;8.846;2022-12-18T08:41:49;65.03;;;26.63;;
29294;SDS011;16305;48.566;8.846;2022-12-18T08:44:43;76.33;;;27.97;;
29294;SDS011;16305;48.566;8.846;2022-12-18T08:47:09;62.27;;;25.50;;
29294;SDS011;16305;48.566;8.846;2022-12-18T08:49:35;65.23;;;24.37;;
29294;SDS011;16305;48.566;8.846;2022-12-18T08:52:00;64.20;;;23.53;;
29294;SDS011;16305;48.566;8.846;2022-12-18T08:54:27;57.57;;;25.73;;
29294;SDS011;16305;48.566;8.846;2022-12-18T08:56:53;59.80;;;26.13;;
29294;SDS011;16305;48.566;8.846;2022-12-18T08:59:18;60.30;;;23.83;;
29294;SDS011;16305;48.566;8.846;2022-12-18T09:01:45;50.73;;;23.43;;
29294;SDS011;16305;48.566;8.846;2022-12-18T09:04:11;55.40;;;21.63;;
29294;SDS011;16305;48.566;8.846;2022-12-18T09:06:38;48.83;;;20.63;;
29294;SDS011;16305;48.566;8.846;2022-12-18T09:09:04;56.93;;;21.57;;
29294;SDS011;16305;48.566;8.846;2022-12-18T09:11:31;46.47;;;20.17;;
29294;SDS011;16305;48.566;8.846;2022-12-18T09:13:58;45.17;;;20.80;;
29294;SDS011;16305;48.566;8.846;2022-12-18T09:16:25;46.60;;;20.83;;
29294;SDS011;16305;48.566;8.846;2022-12-18T09:18:53;43.30;;;19.30;;
29294;SDS011;16305;48.566;8.846;2022-12-18T09:21:25;44.90;;;19.70;;
29294;SDS011;16305;48.566;8.846;2022-12-18T09:23:53;41.87;;;18.73;;
29294;SDS011;16305;48.566;8.846;2022-12-18T09:26:20;38.47;;;18.57;;
29294;SDS011;16305;48.566;8.846;2022-12-18T09:28:47;41.43;;;18.27;;
29294;SDS011;16305;48.566;8.846;2022-12-18T09:31:13;46.00;;;18.97;;
29294;SDS011;16305;48.566;8.846;2022-12-18T09:33:40;45.97;;;18.50;;
29294;SDS011;16305;48.566;8.846;2022-12-18T09:36:07;42.77;;;18.47;;
29294;SDS011;16305;48.566;8.846;2022-12-18T09:38:34;37.87;;;19.53;;
29294;SDS011;16305;48.566;8.846;2022-12-18T09:41:05;45.17;;;21.40;;
29294;SDS011;16305;48.566;8.846;2022-12-18T09:43:51;78.23;;;31.10;;
29294;SDS011;16305;48.566;8.846;2022-12-18T09:46:23;43.67;;;20.50;;
29294;SDS011;16305;48.566;8.846;2022-12-18T09:48:56;52.40;;;21.97;;
29294;SDS011;16305;48.566;8.846;2022-12-18T09:51:27;50.40;;;22.23;;
29294;SDS011;16305;48.566;8.846;2022-12-18T09:53:58;51.00;;;21.73;;
29294;SDS011;16305;48.566;8.846;2022-12-18T09:56:28;52.77;;;22.27;;
29294;SDS011;16305;48.566;8.846;2022-12-18T09:59:00;44.97;;;22.00;;
29294;SDS011;16305;48.566;8.846;2022-12-18T10:01:27;52.93;;;21.83;;
29294;SDS011;16305;48.566;8.846;2022-12-18T10:03:54;54.23;;;23.00;;
29294;SDS011;16305;48.566;8.846;2022-12-18T10:06:21;55.87;;;24.87;;
29294;SDS011;16305;48.566;8.846;2022-12-18T10:09:19;53.67;;;23.87;;
29294;SDS011;16305;48.566;8.846;2022-12-18T10:12:13;61.43;;;23.73;;
29294;SDS011;16305;48.566;8.846;2022-12-18T10:17:14;54.07;;;22.80;;
29294;SDS011;16305;48.566;8.846;2022-12-18T10:19:53;54.83;;;24.33;;
29294;SDS011;16305;48.566;8.846;2022-12-18T10:27:26;59.57;;;25.17;;
29294;SDS011;16305;48.566;8.846;2022-12-18T10:29:53;57.43;;;25.87;;
29294;SDS011;16305;48.566;8.846;2022-12-18T10:32:21;55.40;;;24.07;;
29294;SDS011;16305;48.566;8.846;2022-12-18T10:34:50;60.47;;;25.80;;
29294;SDS011;16305;48.566;8.846;2022-12-18T10:37:18;61.83;;;28.00;;
29294;SDS011;16305;48.566;8.846;2022-12-18T10:39:46;65.47;;;27.47;;
29294;SDS011;16305;48.566;8.846;2022-12-18T10:42:32;62.40;;;27.60;;
29294;SDS011;16305;48.566;8.846;2022-12-18T10:45:01;59.83;;;26.10;;
29294;SDS011;16305;48.566;8.846;2022-12-18T10:47:31;62.23;;;27.73;;
29294;SDS011;16305;48.566;8.846;2022-12-18T10:49:59;66.23;;;27.47;;
29294;SDS011;16305;48.566;8.846;2022-12-18T10:52:25;63.03;;;27.77;;
29294;SDS011;16305;48.566;8.846;2022-12-18T10:54:53;69.23;;;28.73;;
29294;SDS011;16305;48.566;8.846;2022-12-18T10:59:52;73.23;;;29.73;;
29294;SDS011;16305;48.566;8.846;2022-12-18T11:02:25;76.03;;;31.40;;
29294;SDS011;16305;48.566;8.846;2022-12-18T11:04:57;72.00;;;29.37;;
29294;SDS011;16305;48.566;8.846;2022-12-18T11:07:23;77.47;;;32.47;;
29294;SDS011;16305;48.566;8.846;2022-12-18T11:09:59;77.17;;;32.63;;
29294;SDS011;16305;48.566;8.846;2022-12-18T11:12:25;66.07;;;29.50;;
29294;SDS011;16305;48.566;8.846;2022-12-18T11:14:54;73.97;;;30.73;;
29294;SDS011;16305;48.566;8.846;2022-12-18T11:17:24;68.73;;;30.47;;
29294;SDS011;16305;48.566;8.846;2022-12-18T11:19:53;72.90;;;31.63;;
29294;SDS011;16305;48.566;8.846;2022-12-18T11:24:57;75.57;;;34.20;;
29294;SDS011;16305;48.566;8.846;2022-12-18T11:27:24;80.60;;;33.53;;
29294;SDS011;16305;48.566;8.846;2022-12-18T11:29:50;67.80;;;31.03;;
29294;SDS011;16305;48.566;8.846;2022-12-18T11:35:20;64.83;;;30.73;;
29294;SDS011;16305;48.566;8.846;2022-12-18T11:38:02;59.30;;;29.07;;
29294;SDS011;16305;48.566;8.846;2022-12-18T11:40:43;60.50;;;29.83;;
29294;SDS011;16305;48.566;8.846;2022-12-18T11:45:55;62.43;;;33.83;;
29294;SDS011;16305;48.566;8.846;2022-12-18T11:48:30;62.27;;;32.87;;
29294;SDS011;16305;48.566;8.846;2022-12-18T11:51:02;61.03;;;32.03;;
29294;SDS011;16305;48.566;8.846;2022-12-18T11:53:34;64.17;;;32.77;;
29294;SDS011;16305;48.566;8.846;2022-12-18T11:56:12;59.53;;;31.87;;
29294;SDS011;16305;48.566;8.846;2022-12-18T11:58:59;56.43;;;31.73;;
29294;SDS011;16305;48.566;8.846;2022-12-18T12:01:50;59.37;;;32.70;;
29294;SDS011;16305;48.566;8.846;2022-12-18T12:07:06;56.73;;;32.03;;
29294;SDS011;16305;48.566;8.846;2022-12-18T12:12:42;65.90;;;39.17;;
29294;SDS011;16305;48.566;8.846;2022-12-18T12:20:50;56.00;;;32.63;;
29294;SDS011;16305;48.566;8.846;2022-12-18T12:29:09;58.47;;;32.27;;
29294;SDS011;16305;48.566;8.846;2022-12-18T12:32:07;60.23;;;31.57;;
29294;SDS011;16305;48.566;8.846;2022-12-18T12:39:43;54.53;;;30.47;;
29294;SDS011;16305;48.566;8.846;2022-12-18T12:42:16;55.30;;;29.20;;
29294;SDS011;16305;48.566;8.846;2022-12-18T12:45:26;55.47;;;28.23;;
29294;SDS011;16305;48.566;8.846;2022-12-18T12:47:59;55.10;;;27.57;;
29294;SDS011;16305;48.566;8.846;2022-12-18T12:50:29;53.17;;;26.53;;
29294;SDS011;16305;48.566;8.846;2022-12-18T12:52:58;53.27;;;27.97;;
29294;SDS011;16305;48.566;8.846;2022-12-18T12:55:29;52.83;;;26.87;;
29294;SDS011;16305;48.566;8.846;2022-12-18T13:00:24;51.47;;;25.63;;
29294;SDS011;16305;48.566;8.846;2022-12-18T13:03:11;58.23;;;26.83;;
29294;SDS011;16305;48.566;8.846;2022-12-18T13:05:50;46.43;;;24.23;;
29294;SDS011;16305;48.566;8.846;2022-12-18T13:08:26;44.33;;;24.30;;
29294;SDS011;16305;48.566;8.846;2022-12-18T13:10:57;50.23;;;24.70;;
29294;SDS011;16305;48.566;8.846;2022-12-18T13:13:52;42.80;;;22.77;;
29294;SDS011;16305;48.566;8.846;2022-12-18T13:16:21;45.90;;;22.37;;
29294;SDS011;16305;48.566;8.846;2022-12-18T13:18:49;42.67;;;20.67;;
29294;SDS011;16305;48.566;8.846;2022-12-18T13:23:48;41.87;;;20.23;;
29294;SDS011;16305;48.566;8.846;2022-12-18T13:31:14;42.67;;;20.50;;
29294;SDS011;16305;48.566;8.846;2022-12-18T13:36:45;44.43;;;21.63;;
29294;SDS011;16305;48.566;8.846;2022-12-18T13:41:43;44.13;;;22.47;;
29294;SDS011;16305;48.566;8.846;2022-12-18T13:44:33;41.83;;;21.53;;
29294;SDS011;16305;48.566;8.846;2022-12-18T13:47:01;42.63;;;21.33;;
29294;SDS011;16305;48.566;8.846;2022-12-18T13:49:38;42.33;;;20.97;;
29294;SDS011;16305;48.566;8.846;2022-12-18T13:52:42;45.23;;;23.23;;
29294;SDS011;16305;48.566;8.846;2022-12-18T13:55:02;45.07;;;23.83;;
29294;SDS011;16305;48.566;8.846;2022-12-18T13:57:32;52.63;;;25.40;;
29294;SDS011;16305;48.566;8.846;2022-12-18T13:59:59;62.97;;;32.27;;
29294;SDS011;16305;48.566;8.846;2022-12-18T14:02:53;85.13;;;41.80;;
29294;SDS011;16305;48.566;8.846;2022-12-18T14:05:33;79.80;;;42.30;;
29294;SDS011;16305;48.566;8.846;2022-12-18T14:08:02;60.30;;;31.77;;
29294;SDS011;16305;48.566;8.846;2022-12-18T14:10:33;58.70;;;30.37;;
29294;SDS011;16305;48.566;8.846;2022-12-18T14:13:05;58.23;;;29.50;;
29294;SDS011;16305;48.566;8.846;2022-12-18T14:20:43;65.50;;;33.30;;
29294;SDS011;16305;48.566;8.846;2022-12-18T14:25:56;59.50;;;30.30;;
29294;SDS011;16305;48.566;8.846;2022-12-18T14:28:21;59.13;;;29.80;;
29294;SDS011;16305;48.566;8.846;2022-12-18T14:30:47;59.20;;;29.40;;
29294;SDS011;16305;48.566;8.846;2022-12-18T14:33:17;59.27;;;28.57;;
29294;SDS011;16305;48.566;8.846;2022-12-18T14:38:38;56.07;;;28.33;;
29294;SDS011;16305;48.566;8.846;2022-12-18T14:41:05;58.43;;;28.27;;
29294;SDS011;16305;48.566;8.846;2022-12-18T14:43:35;59.43;;;28.03;;
29294;SDS011;16305;48.566;8.846;2022-12-18T14:46:02;63.00;;;28.73;;
29294;SDS011;16305;48.566;8.846;2022-12-18T14:51:02;67.07;;;29.77;;
29294;SDS011;16305;48.566;8.846;2022-12-18T14:56:14;58.97;;;27.33;;
29294;SDS011;16305;48.566;8.846;2022-12-18T14:58:55;70.90;;;30.70;;
29294;SDS011;16305;48.566;8.846;2022-12-18T15:01:27;90.93;;;38.37;;
29294;SDS011;16305;48.566;8.846;2022-12-18T15:03:55;99.13;;;41.07;;
29294;SDS011;16305;48.566;8.846;2022-12-18T15:06:33;76.60;;;31.90;;
29294;SDS011;16305;48.566;8.846;2022-12-18T15:09:18;63.97;;;27.57;;
29294;SDS011;16305;48.566;8.846;2022-12-18T15:11:54;59.43;;;25.17;;
29294;SDS011;16305;48.566;8.846;2022-12-18T15:14:29;55.93;;;25.97;;
29294;SDS011;16305;48.566;8.846;2022-12-18T15:16:55;61.50;;;27.80;;
29294;SDS011;16305;48.566;8.846;2022-12-18T15:19:25;63.23;;;28.63;;
29294;SDS011;16305;48.566;8.846;2022-12-18T15:22:14;60.07;;;26.47;;
29294;SDS011;16305;48.566;8.846;2022-12-18T15:24:47;61.20;;;25.77;;
29294;SDS011;16305;48.566;8.846;2022-12-18T15:32:32;61.87;;;25.23;;
29294;SDS011;16305;48.566;8.846;2022-12-18T15:35:41;60.43;;;24.90;;
29294;SDS011;16305;48.566;8.846;2022-12-18T15:37:49;63.80;;;25.70;;
29294;SDS011;16305;48.566;8.846;2022-12-18T15:40:21;57.73;;;25.13;;
29294;SDS011;16305;48.566;8.846;2022-12-18T15:42:50;67.73;;;26.83;;
29294;SDS011;16305;48.566;8.846;2022-12-18T15:45:37;70.00;;;29.03;;
29294;SDS011;16305;48.566;8.846;2022-12-18T15:48:20;67.43;;;27.43;;
29294;SDS011;16305;48.566;8.846;2022-12-18T15:50:47;67.17;;;27.47;;
29294;SDS011;16305;48.566;8.846;2022-12-18T15:53:14;62.07;;;26.80;;
29294;SDS011;16305;48.566;8.846;2022-12-18T15:55:40;76.73;;;31.00;;
29294;SDS011;16305;48.566;8.846;2022-12-18T15:58:24;67.93;;;29.67;;
29294;SDS011;16305;48.566;8.846;2022-12-18T16:00:49;70.23;;;31.97;;
29294;SDS011;16305;48.566;8.846;2022-12-18T16:03:15;79.97;;;35.23;;
29294;SDS011;16305;48.566;8.846;2022-12-18T16:05:40;75.63;;;35.27;;
29294;SDS011;16305;48.566;8.846;2022-12-18T16:08:06;79.87;;;36.37;;
29294;SDS011;16305;48.566;8.846;2022-12-18T16:10:31;87.13;;;38.47;;